sensor_id;sensor_type;location;lat;lon;timestamp;P1;durP1;ratioP1;P2;durP2;ratioP2
4210;SDS011;2119;48.828;12.396;2022-09-12T00:02:40;9.73;;;7.68;;
4210;SDS011;2119;48.828;12.396;2022-09-12T00:07:40;9.33;;;8.43;;
4210;SDS011;2119;48.828;12.396;2022-09-12T00:12:40;9.75;;;8.82;;
4210;SDS011;2119;48.828;12.396;2022-09-12T00:17:40;7.63;;;7.03;;
4210;SDS011;2119;48.828;12.396;2022-09-12T00:22:41;7.97;;;7.17;;
4210;SDS011;2119;48.828;12.396;2022-09-12T00:27:41;8.70;;;8.00;;
4210;SDS011;2119;48.828;12.396;2022-09-12T00:32:41;8.47;;;7.70;;
4210;SDS011;2119;48.828;12.396;2022-09-12T00:37:41;8.30;;;7.60;;
4210;SDS011;2119;48.828;12.396;2022-09-12T00:42:41;10.97;;;8.67;;
4210;SDS011;2119;48.828;12.396;2022-09-12T00:47:41;9.20;;;8.40;;
4210;SDS011;2119;48.828;12.396;2022-09-12T00:52:43;8.63;;;7.93;;
4210;SDS011;2119;48.828;12.396;2022-09-12T01:03:18;7.93;;;7.17;;
4210;SDS011;2119;48.828;12.396;2022-09-12T01:08:19;10.73;;;7.90;;
4210;SDS011;2119;48.828;12.396;2022-09-12T01:13:19;8.75;;;8.05;;
4210;SDS011;2119;48.828;12.396;2022-09-12T01:39:05;9.60;;;8.60;;
4210;SDS011;2119;48.828;12.396;2022-09-12T01:44:12;9.20;;;8.40;;
4210;SDS011;2119;48.828;12.396;2022-09-12T01:49:16;9.73;;;8.83;;
4210;SDS011;2119;48.828;12.396;2022-09-12T01:54:18;8.90;;;8.00;;
4210;SDS011;2119;48.828;12.396;2022-09-12T01:59:33;11.13;;;10.03;;
4210;SDS011;2119;48.828;12.396;2022-09-12T02:04:35;10.83;;;9.73;;
4210;SDS011;2119;48.828;12.396;2022-09-12T02:09:42;11.10;;;10.10;;
4210;SDS011;2119;48.828;12.396;2022-09-12T02:14:46;12.07;;;9.60;;
4210;SDS011;2119;48.828;12.396;2022-09-12T02:19:50;10.50;;;9.53;;
4210;SDS011;2119;48.828;12.396;2022-09-12T02:24:53;11.30;;;10.20;;
4210;SDS011;2119;48.828;12.396;2022-09-12T02:29:54;10.93;;;9.83;;
4210;SDS011;2119;48.828;12.396;2022-09-12T02:40:31;10.77;;;9.67;;
4210;SDS011;2119;48.828;12.396;2022-09-12T02:45:33;10.27;;;8.63;;
4210;SDS011;2119;48.828;12.396;2022-09-12T02:50:33;8.60;;;7.50;;
4210;SDS011;2119;48.828;12.396;2022-09-12T02:55:34;8.90;;;8.00;;
4210;SDS011;2119;48.828;12.396;2022-09-12T03:06:02;10.33;;;7.77;;
4210;SDS011;2119;48.828;12.396;2022-09-12T03:11:17;7.40;;;6.90;;
4210;SDS011;2119;48.828;12.396;2022-09-12T03:32:15;11.30;;;8.27;;
4210;SDS011;2119;48.828;12.396;2022-09-12T03:37:15;7.40;;;6.80;;
4210;SDS011;2119;48.828;12.396;2022-09-12T03:42:15;7.47;;;6.77;;
4210;SDS011;2119;48.828;12.396;2022-09-12T03:47:15;7.97;;;7.27;;
4210;SDS011;2119;48.828;12.396;2022-09-12T03:52:15;5.50;;;5.10;;
4210;SDS011;2119;48.828;12.396;2022-09-12T03:57:16;14.63;;;12.90;;
4210;SDS011;2119;48.828;12.396;2022-09-12T04:02:16;8.17;;;7.57;;
4210;SDS011;2119;48.828;12.396;2022-09-12T04:07:16;7.37;;;6.87;;
4210;SDS011;2119;48.828;12.396;2022-09-12T04:12:17;8.13;;;7.50;;
4210;SDS011;2119;48.828;12.396;2022-09-12T04:17:17;8.43;;;7.73;;
4210;SDS011;2119;48.828;12.396;2022-09-12T04:22:17;8.33;;;7.57;;
4210;SDS011;2119;48.828;12.396;2022-09-12T04:27:17;5.47;;;4.97;;
4210;SDS011;2119;48.828;12.396;2022-09-12T04:32:17;7.53;;;7.03;;
4210;SDS011;2119;48.828;12.396;2022-09-12T04:37:17;7.40;;;6.90;;
4210;SDS011;2119;48.828;12.396;2022-09-12T04:42:18;8.80;;;7.17;;
4210;SDS011;2119;48.828;12.396;2022-09-12T04:47:18;21.50;;;7.90;;
4210;SDS011;2119;48.828;12.396;2022-09-12T04:52:18;10.13;;;6.18;;
4210;SDS011;2119;48.828;12.396;2022-09-12T04:57:18;13.87;;;10.17;;
4210;SDS011;2119;48.828;12.396;2022-09-12T05:02:19;9.87;;;7.27;;
4210;SDS011;2119;48.828;12.396;2022-09-12T05:07:19;9.67;;;8.87;;
4210;SDS011;2119;48.828;12.396;2022-09-12T05:12:19;6.55;;;6.05;;
4210;SDS011;2119;48.828;12.396;2022-09-12T05:17:19;6.87;;;6.27;;
4210;SDS011;2119;48.828;12.396;2022-09-12T05:22:20;7.27;;;6.67;;
4210;SDS011;2119;48.828;12.396;2022-09-12T05:27:20;9.07;;;8.17;;
4210;SDS011;2119;48.828;12.396;2022-09-12T05:32:20;8.02;;;7.13;;
4210;SDS011;2119;48.828;12.396;2022-09-12T05:37:20;8.77;;;7.97;;
4210;SDS011;2119;48.828;12.396;2022-09-12T05:42:22;13.77;;;9.67;;
4210;SDS011;2119;48.828;12.396;2022-09-12T05:47:23;17.57;;;11.00;;
4210;SDS011;2119;48.828;12.396;2022-09-12T05:52:23;16.27;;;12.10;;
4210;SDS011;2119;48.828;12.396;2022-09-12T05:57:23;23.97;;;12.37;;
4210;SDS011;2119;48.828;12.396;2022-09-12T06:02:23;32.83;;;14.47;;
4210;SDS011;2119;48.828;12.396;2022-09-12T06:07:23;24.33;;;14.55;;
4210;SDS011;2119;48.828;12.396;2022-09-12T06:12:24;20.57;;;14.20;;
4210;SDS011;2119;48.828;12.396;2022-09-12T06:17:28;23.20;;;13.90;;
4210;SDS011;2119;48.828;12.396;2022-09-12T06:22:28;44.60;;;17.60;;
4210;SDS011;2119;48.828;12.396;2022-09-12T06:27:28;21.40;;;14.65;;
4210;SDS011;2119;48.828;12.396;2022-09-12T06:32:29;26.37;;;13.47;;
4210;SDS011;2119;48.828;12.396;2022-09-12T06:37:29;22.60;;;14.63;;
4210;SDS011;2119;48.828;12.396;2022-09-12T06:42:30;52.17;;;16.20;;
4210;SDS011;2119;48.828;12.396;2022-09-12T06:47:30;19.33;;;14.70;;
4210;SDS011;2119;48.828;12.396;2022-09-12T06:52:30;35.13;;;15.20;;
4210;SDS011;2119;48.828;12.396;2022-09-12T06:57:30;23.40;;;14.50;;
4210;SDS011;2119;48.828;12.396;2022-09-12T07:02:35;27.87;;;15.10;;
4210;SDS011;2119;48.828;12.396;2022-09-12T07:07:35;30.33;;;14.63;;
4210;SDS011;2119;48.828;12.396;2022-09-12T07:12:35;22.67;;;12.90;;
4210;SDS011;2119;48.828;12.396;2022-09-12T07:17:36;19.10;;;12.57;;
4210;SDS011;2119;48.828;12.396;2022-09-12T07:22:36;18.37;;;12.83;;
4210;SDS011;2119;48.828;12.396;2022-09-12T07:27:36;22.83;;;13.27;;
4210;SDS011;2119;48.828;12.396;2022-09-12T07:32:37;15.80;;;12.63;;
4210;SDS011;2119;48.828;12.396;2022-09-12T07:37:37;18.98;;;12.85;;
4210;SDS011;2119;48.828;12.396;2022-09-12T07:42:37;15.00;;;11.60;;
4210;SDS011;2119;48.828;12.396;2022-09-12T07:47:37;17.33;;;12.93;;
4210;SDS011;2119;48.828;12.396;2022-09-12T07:52:39;20.03;;;13.70;;
4210;SDS011;2119;48.828;12.396;2022-09-12T07:57:40;20.73;;;12.97;;
4210;SDS011;2119;48.828;12.396;2022-09-12T08:02:40;23.85;;;13.13;;
4210;SDS011;2119;48.828;12.396;2022-09-12T08:07:40;16.90;;;13.10;;
4210;SDS011;2119;48.828;12.396;2022-09-12T08:12:40;14.50;;;12.30;;
4210;SDS011;2119;48.828;12.396;2022-09-12T08:17:41;26.13;;;14.33;;
4210;SDS011;2119;48.828;12.396;2022-09-12T08:22:42;16.77;;;12.63;;
4210;SDS011;2119;48.828;12.396;2022-09-12T08:27:42;16.40;;;12.90;;
4210;SDS011;2119;48.828;12.396;2022-09-12T08:32:43;18.13;;;14.13;;
4210;SDS011;2119;48.828;12.396;2022-09-12T08:37:43;18.10;;;14.32;;
4210;SDS011;2119;48.828;12.396;2022-09-12T08:42:46;19.73;;;15.48;;
4210;SDS011;2119;48.828;12.396;2022-09-12T08:47:47;18.80;;;15.10;;
4210;SDS011;2119;48.828;12.396;2022-09-12T08:52:50;17.17;;;15.20;;
4210;SDS011;2119;48.828;12.396;2022-09-12T08:57:51;19.77;;;15.73;;
4210;SDS011;2119;48.828;12.396;2022-09-12T09:18:42;19.83;;;15.80;;
4210;SDS011;2119;48.828;12.396;2022-09-12T09:23:43;19.07;;;16.47;;
4210;SDS011;2119;48.828;12.396;2022-09-12T09:28:45;20.77;;;17.07;;
4210;SDS011;2119;48.828;12.396;2022-09-12T09:33:49;19.90;;;16.53;;
4210;SDS011;2119;48.828;12.396;2022-09-12T09:38:59;28.40;;;17.33;;
4210;SDS011;2119;48.828;12.396;2022-09-12T09:44:02;20.17;;;16.77;;
4210;SDS011;2119;48.828;12.396;2022-09-12T09:49:05;18.35;;;16.08;;
4210;SDS011;2119;48.828;12.396;2022-09-12T09:54:17;21.73;;;16.63;;
4210;SDS011;2119;48.828;12.396;2022-09-12T09:59:24;19.43;;;17.10;;
4210;SDS011;2119;48.828;12.396;2022-09-12T10:04:29;19.10;;;17.10;;
4210;SDS011;2119;48.828;12.396;2022-09-12T10:09:30;19.57;;;17.47;;
4210;SDS011;2119;48.828;12.396;2022-09-12T10:14:39;19.60;;;17.50;;
4210;SDS011;2119;48.828;12.396;2022-09-12T10:19:39;22.40;;;16.83;;
4210;SDS011;2119;48.828;12.396;2022-09-12T10:24:39;20.10;;;17.55;;
4210;SDS011;2119;48.828;12.396;2022-09-12T10:29:44;18.43;;;15.80;;
4210;SDS011;2119;48.828;12.396;2022-09-12T10:34:47;21.10;;;17.50;;
4210;SDS011;2119;48.828;12.396;2022-09-12T10:39:51;19.27;;;16.60;;
4210;SDS011;2119;48.828;12.396;2022-09-12T10:44:52;18.00;;;16.00;;
4210;SDS011;2119;48.828;12.396;2022-09-12T10:50:05;17.53;;;15.00;;
4210;SDS011;2119;48.828;12.396;2022-09-12T10:55:15;16.37;;;14.23;;
4210;SDS011;2119;48.828;12.396;2022-09-12T11:00:16;15.27;;;13.68;;
4210;SDS011;2119;48.828;12.396;2022-09-12T11:35:54;12.03;;;11.03;;
4210;SDS011;2119;48.828;12.396;2022-09-12T11:41:03;10.33;;;9.33;;
4210;SDS011;2119;48.828;12.396;2022-09-12T11:46:07;9.90;;;9.10;;
4210;SDS011;2119;48.828;12.396;2022-09-12T11:51:13;8.20;;;7.60;;
4210;SDS011;2119;48.828;12.396;2022-09-12T11:56:16;8.43;;;7.73;;
4210;SDS011;2119;48.828;12.396;2022-09-12T12:01:22;6.23;;;5.83;;
4210;SDS011;2119;48.828;12.396;2022-09-12T12:06:25;5.90;;;5.40;;
4210;SDS011;2119;48.828;12.396;2022-09-12T12:11:31;9.33;;;8.50;;
4210;SDS011;2119;48.828;12.396;2022-09-12T12:16:33;7.77;;;7.17;;
4210;SDS011;2119;48.828;12.396;2022-09-12T12:21:35;7.33;;;6.73;;
4210;SDS011;2119;48.828;12.396;2022-09-12T12:47:32;5.43;;;5.03;;
4210;SDS011;2119;48.828;12.396;2022-09-12T12:52:41;5.27;;;4.87;;
4210;SDS011;2119;48.828;12.396;2022-09-12T12:57:47;4.63;;;4.33;;
4210;SDS011;2119;48.828;12.396;2022-09-12T13:02:50;3.90;;;3.63;;
4210;SDS011;2119;48.828;12.396;2022-09-12T13:07:55;4.57;;;4.27;;
4210;SDS011;2119;48.828;12.396;2022-09-12T13:12:58;4.60;;;4.30;;
4210;SDS011;2119;48.828;12.396;2022-09-12T13:18:03;4.13;;;3.93;;
4210;SDS011;2119;48.828;12.396;2022-09-12T13:23:04;4.87;;;4.57;;
4210;SDS011;2119;48.828;12.396;2022-09-12T13:28:15;5.43;;;5.00;;
4210;SDS011;2119;48.828;12.396;2022-09-12T13:43:38;4.80;;;4.50;;
4210;SDS011;2119;48.828;12.396;2022-09-12T13:48:40;5.07;;;4.77;;
4210;SDS011;2119;48.828;12.396;2022-09-12T13:53:42;5.07;;;4.70;;
4210;SDS011;2119;48.828;12.396;2022-09-12T13:58:50;4.90;;;4.50;;
4210;SDS011;2119;48.828;12.396;2022-09-12T14:03:51;5.20;;;4.90;;
4210;SDS011;2119;48.828;12.396;2022-09-12T14:09:11;3.97;;;3.77;;
4210;SDS011;2119;48.828;12.396;2022-09-12T14:19:22;4.03;;;3.83;;
4210;SDS011;2119;48.828;12.396;2022-09-12T14:24:23;4.60;;;4.30;;
4210;SDS011;2119;48.828;12.396;2022-09-12T14:29:24;4.80;;;4.60;;
4210;SDS011;2119;48.828;12.396;2022-09-12T14:34:25;4.57;;;4.37;;
4210;SDS011;2119;48.828;12.396;2022-09-12T14:44:28;4.20;;;4.00;;
4210;SDS011;2119;48.828;12.396;2022-09-12T14:49:30;4.30;;;4.00;;
4210;SDS011;2119;48.828;12.396;2022-09-12T14:59:38;4.50;;;4.30;;
4210;SDS011;2119;48.828;12.396;2022-09-12T15:04:39;4.80;;;4.60;;
4210;SDS011;2119;48.828;12.396;2022-09-12T15:09:40;4.30;;;4.00;;
4210;SDS011;2119;48.828;12.396;2022-09-12T15:14:41;4.57;;;4.27;;
4210;SDS011;2119;48.828;12.396;2022-09-12T15:19:41;4.43;;;3.80;;
4210;SDS011;2119;48.828;12.396;2022-09-12T15:24:41;4.60;;;4.33;;
4210;SDS011;2119;48.828;12.396;2022-09-12T15:29:41;4.80;;;4.47;;
4210;SDS011;2119;48.828;12.396;2022-09-12T15:34:41;3.73;;;3.43;;
4210;SDS011;2119;48.828;12.396;2022-09-12T15:39:42;4.37;;;4.07;;
4210;SDS011;2119;48.828;12.396;2022-09-12T15:44:42;4.30;;;4.10;;
4210;SDS011;2119;48.828;12.396;2022-09-12T15:49:42;4.80;;;4.50;;
4210;SDS011;2119;48.828;12.396;2022-09-12T15:54:42;4.60;;;4.30;;
4210;SDS011;2119;48.828;12.396;2022-09-12T15:59:43;4.20;;;4.00;;
4210;SDS011;2119;48.828;12.396;2022-09-12T16:04:43;4.37;;;4.07;;
4210;SDS011;2119;48.828;12.396;2022-09-12T16:09:43;4.50;;;4.20;;
4210;SDS011;2119;48.828;12.396;2022-09-12T16:14:43;4.10;;;3.90;;
4210;SDS011;2119;48.828;12.396;2022-09-12T16:19:43;4.17;;;3.97;;
4210;SDS011;2119;48.828;12.396;2022-09-12T16:24:44;3.80;;;3.60;;
4210;SDS011;2119;48.828;12.396;2022-09-12T16:29:44;5.50;;;5.20;;
4210;SDS011;2119;48.828;12.396;2022-09-12T16:34:44;4.03;;;3.73;;
4210;SDS011;2119;48.828;12.396;2022-09-12T16:39:44;4.85;;;4.55;;
4210;SDS011;2119;48.828;12.396;2022-09-12T16:44:45;4.77;;;4.47;;
4210;SDS011;2119;48.828;12.396;2022-09-12T16:49:46;6.93;;;6.43;;
4210;SDS011;2119;48.828;12.396;2022-09-12T16:54:46;5.43;;;5.03;;
4210;SDS011;2119;48.828;12.396;2022-09-12T16:59:46;5.00;;;4.70;;
4210;SDS011;2119;48.828;12.396;2022-09-12T17:04:46;5.10;;;4.80;;
4210;SDS011;2119;48.828;12.396;2022-09-12T17:09:47;4.97;;;4.67;;
4210;SDS011;2119;48.828;12.396;2022-09-12T17:14:47;5.20;;;4.90;;
4210;SDS011;2119;48.828;12.396;2022-09-12T17:19:47;4.50;;;4.30;;
4210;SDS011;2119;48.828;12.396;2022-09-12T17:24:47;4.90;;;4.60;;
4210;SDS011;2119;48.828;12.396;2022-09-12T17:29:48;4.90;;;4.60;;
4210;SDS011;2119;48.828;12.396;2022-09-12T17:34:48;4.60;;;4.30;;
4210;SDS011;2119;48.828;12.396;2022-09-12T17:39:48;4.40;;;4.20;;
4210;SDS011;2119;48.828;12.396;2022-09-12T17:44:48;4.80;;;4.50;;
4210;SDS011;2119;48.828;12.396;2022-09-12T17:49:49;5.80;;;5.40;;
4210;SDS011;2119;48.828;12.396;2022-09-12T17:54:49;5.90;;;5.50;;
4210;SDS011;2119;48.828;12.396;2022-09-12T17:59:50;6.50;;;6.07;;
4210;SDS011;2119;48.828;12.396;2022-09-12T18:04:50;6.40;;;6.00;;
4210;SDS011;2119;48.828;12.396;2022-09-12T18:09:50;6.20;;;5.73;;
4210;SDS011;2119;48.828;12.396;2022-09-12T18:14:50;8.43;;;7.70;;
4210;SDS011;2119;48.828;12.396;2022-09-12T18:19:51;7.63;;;7.03;;
4210;SDS011;2119;48.828;12.396;2022-09-12T18:24:52;6.90;;;6.40;;
4210;SDS011;2119;48.828;12.396;2022-09-12T18:29:53;8.70;;;8.13;;
4210;SDS011;2119;48.828;12.396;2022-09-12T18:34:53;8.57;;;7.97;;
4210;SDS011;2119;48.828;12.396;2022-09-12T18:39:53;8.50;;;7.57;;
4210;SDS011;2119;48.828;12.396;2022-09-12T18:44:54;7.03;;;6.53;;
4210;SDS011;2119;48.828;12.396;2022-09-12T18:49:54;6.60;;;6.20;;
4210;SDS011;2119;48.828;12.396;2022-09-12T18:54:54;6.77;;;6.17;;
4210;SDS011;2119;48.828;12.396;2022-09-12T18:59:54;7.30;;;6.77;;
4210;SDS011;2119;48.828;12.396;2022-09-12T19:04:58;6.80;;;6.30;;
4210;SDS011;2119;48.828;12.396;2022-09-12T19:09:58;6.97;;;6.33;;
4210;SDS011;2119;48.828;12.396;2022-09-12T19:14:58;7.30;;;6.30;;
4210;SDS011;2119;48.828;12.396;2022-09-12T19:20:00;7.30;;;6.70;;
4210;SDS011;2119;48.828;12.396;2022-09-12T19:25:00;6.95;;;6.50;;
4210;SDS011;2119;48.828;12.396;2022-09-12T19:30:00;6.53;;;6.03;;
4210;SDS011;2119;48.828;12.396;2022-09-12T19:35:00;7.50;;;6.90;;
4210;SDS011;2119;48.828;12.396;2022-09-12T19:40:01;6.93;;;6.33;;
4210;SDS011;2119;48.828;12.396;2022-09-12T19:45:02;6.03;;;5.53;;
4210;SDS011;2119;48.828;12.396;2022-09-12T19:50:02;7.10;;;6.60;;
4210;SDS011;2119;48.828;12.396;2022-09-12T19:55:02;9.43;;;8.50;;
4210;SDS011;2119;48.828;12.396;2022-09-12T20:00:03;7.00;;;6.40;;
4210;SDS011;2119;48.828;12.396;2022-09-12T20:05:04;6.90;;;6.40;;
4210;SDS011;2119;48.828;12.396;2022-09-12T20:10:05;7.00;;;6.60;;
4210;SDS011;2119;48.828;12.396;2022-09-12T20:15:05;6.78;;;6.28;;
4210;SDS011;2119;48.828;12.396;2022-09-12T20:20:07;6.87;;;6.23;;
4210;SDS011;2119;48.828;12.396;2022-09-12T20:25:08;6.23;;;5.73;;
4210;SDS011;2119;48.828;12.396;2022-09-12T20:30:08;5.57;;;5.17;;
4210;SDS011;2119;48.828;12.396;2022-09-12T20:35:09;5.90;;;5.43;;
4210;SDS011;2119;48.828;12.396;2022-09-12T20:40:09;5.83;;;5.43;;
4210;SDS011;2119;48.828;12.396;2022-09-12T20:45:10;7.47;;;5.90;;
4210;SDS011;2119;48.828;12.396;2022-09-12T20:50:10;7.23;;;5.20;;
4210;SDS011;2119;48.828;12.396;2022-09-12T20:55:10;7.40;;;6.77;;
4210;SDS011;2119;48.828;12.396;2022-09-12T21:00:10;7.43;;;6.20;;
4210;SDS011;2119;48.828;12.396;2022-09-12T21:05:11;7.10;;;6.40;;
4210;SDS011;2119;48.828;12.396;2022-09-12T21:10:11;5.43;;;5.07;;
4210;SDS011;2119;48.828;12.396;2022-09-12T21:15:12;5.50;;;5.10;;
4210;SDS011;2119;48.828;12.396;2022-09-12T21:20:12;5.70;;;5.30;;
4210;SDS011;2119;48.828;12.396;2022-09-12T21:25:13;6.90;;;6.30;;
4210;SDS011;2119;48.828;12.396;2022-09-12T21:30:13;7.40;;;6.80;;
4210;SDS011;2119;48.828;12.396;2022-09-12T21:35:13;6.53;;;6.03;;
4210;SDS011;2119;48.828;12.396;2022-09-12T21:40:13;7.03;;;6.43;;
4210;SDS011;2119;48.828;12.396;2022-09-12T21:45:14;6.60;;;6.10;;
4210;SDS011;2119;48.828;12.396;2022-09-12T21:50:14;6.37;;;5.83;;
4210;SDS011;2119;48.828;12.396;2022-09-12T21:55:14;5.57;;;5.18;;
4210;SDS011;2119;48.828;12.396;2022-09-12T22:00:15;6.00;;;5.60;;
4210;SDS011;2119;48.828;12.396;2022-09-12T22:05:15;6.07;;;5.63;;
4210;SDS011;2119;48.828;12.396;2022-09-12T22:10:16;6.20;;;5.80;;
4210;SDS011;2119;48.828;12.396;2022-09-12T22:15:16;6.00;;;5.50;;
4210;SDS011;2119;48.828;12.396;2022-09-12T22:20:16;5.03;;;4.53;;
4210;SDS011;2119;48.828;12.396;2022-09-12T22:25:17;4.70;;;4.40;;
4210;SDS011;2119;48.828;12.396;2022-09-12T22:30:18;5.40;;;5.10;;
4210;SDS011;2119;48.828;12.396;2022-09-12T22:35:22;4.60;;;4.20;;
4210;SDS011;2119;48.828;12.396;2022-09-12T22:41:07;4.67;;;3.90;;
4210;SDS011;2119;48.828;12.396;2022-09-12T22:46:08;5.50;;;5.10;;
4210;SDS011;2119;48.828;12.396;2022-09-12T22:51:09;5.40;;;4.97;;
4210;SDS011;2119;48.828;12.396;2022-09-12T22:56:09;4.90;;;4.50;;
4210;SDS011;2119;48.828;12.396;2022-09-12T23:01:09;3.60;;;3.30;;
4210;SDS011;2119;48.828;12.396;2022-09-12T23:06:10;4.03;;;3.83;;
4210;SDS011;2119;48.828;12.396;2022-09-12T23:11:11;3.07;;;2.87;;
4210;SDS011;2119;48.828;12.396;2022-09-12T23:16:13;3.80;;;3.50;;
4210;SDS011;2119;48.828;12.396;2022-09-12T23:21:14;3.80;;;3.60;;
4210;SDS011;2119;48.828;12.396;2022-09-12T23:26:22;3.70;;;3.50;;
4210;SDS011;2119;48.828;12.396;2022-09-12T23:31:23;4.73;;;4.33;;
4210;SDS011;2119;48.828;12.396;2022-09-12T23:36:24;3.57;;;3.37;;
4210;SDS011;2119;48.828;12.396;2022-09-12T23:41:24;4.00;;;3.70;;
4210;SDS011;2119;48.828;12.396;2022-09-12T23:46:25;4.30;;;4.00;;
4210;SDS011;2119;48.828;12.396;2022-09-12T23:51:25;4.07;;;3.77;;
4210;SDS011;2119;48.828;12.396;2022-09-12T23:56:25;5.28;;;4.88;;
